createdAt,value
2018-09-20T00:01:39.941Z,18.33
2018-09-20T00:04:06.857Z,18.30
2018-09-20T00:06:33.845Z,18.25
2018-09-20T00:09:00.803Z,18.19
2018-09-20T00:11:27.736Z,18.11
2018-09-20T00:13:54.689Z,18.08
2018-09-20T00:16:21.604Z,18.05
2018-09-20T00:18:48.521Z,18.04
2018-09-20T00:21:15.469Z,18.00
2018-09-20T00:23:42.375Z,17.94
2018-09-20T00:26:09.317Z,17.91
2018-09-20T00:28:36.272Z,17.90
2018-09-20T00:31:03.232Z,17.87
2018-09-20T00:33:30.171Z,17.90
2018-09-20T00:35:57.073Z,17.92
2018-09-20T00:38:24.010Z,17.86
2018-09-20T00:40:50.949Z,17.83
2018-09-20T00:43:17.885Z,17.78
2018-09-20T00:45:44.795Z,17.81
2018-09-20T00:48:11.714Z,17.85
2018-09-20T00:50:38.650Z,17.83
2018-09-20T00:53:06.021Z,17.75
2018-09-20T00:55:32.937Z,17.70
2018-09-20T00:57:59.863Z,17.69
2018-09-20T01:00:26.833Z,17.67
2018-09-20T01:02:53.727Z,17.62
2018-09-20T01:05:20.700Z,17.58
2018-09-20T01:07:47.663Z,17.51
2018-09-20T01:10:14.626Z,17.48
2018-09-20T01:12:41.577Z,17.48
2018-09-20T01:15:08.537Z,17.50
2018-09-20T01:17:35.670Z,17.49
2018-09-20T01:20:02.717Z,17.45
2018-09-20T01:22:36.388Z,17.43
2018-09-20T01:25:03.372Z,17.40
2018-09-20T01:27:30.307Z,17.38
2018-09-20T01:29:57.298Z,17.33
2018-09-20T01:32:24.228Z,17.30
2018-09-20T01:34:51.152Z,17.29
2018-09-20T01:37:18.107Z,17.29
2018-09-20T01:39:45.043Z,17.26
2018-09-20T01:42:11.982Z,17.27
2018-09-20T01:44:38.893Z,17.23
2018-09-20T01:47:05.851Z,17.22
2018-09-20T01:49:32.822Z,17.23
2018-09-20T01:51:59.976Z,17.16
2018-09-20T01:54:26.905Z,17.15
2018-09-20T01:56:53.821Z,17.13
2018-09-20T01:59:20.797Z,17.14
2018-09-20T02:01:47.725Z,17.12
2018-09-20T02:04:14.670Z,17.14
2018-09-20T02:06:41.592Z,17.11
2018-09-20T02:09:09.548Z,17.11
2018-09-20T02:11:36.496Z,17.08
2018-09-20T02:14:03.768Z,17.04
2018-09-20T02:16:30.697Z,17.02
2018-09-20T02:18:57.644Z,16.97
2018-09-20T02:21:24.584Z,16.97
2018-09-20T02:23:51.521Z,16.95
2018-09-20T02:26:18.448Z,16.94
2018-09-20T02:28:45.606Z,16.88
2018-09-20T02:31:12.588Z,16.87
2018-09-20T02:33:39.530Z,16.86
2018-09-20T02:36:06.453Z,16.80
2018-09-20T02:38:33.656Z,16.84
2018-09-20T02:41:00.574Z,16.83
2018-09-20T02:43:27.503Z,16.81
2018-09-20T02:45:54.440Z,16.79
2018-09-20T02:48:21.352Z,16.80
2018-09-20T02:50:48.276Z,16.76
2018-09-20T02:53:15.205Z,16.70
2018-09-20T02:55:42.117Z,16.71
2018-09-20T02:58:09.040Z,16.67
2018-09-20T03:00:35.964Z,16.66
2018-09-20T03:03:02.904Z,16.65
2018-09-20T03:05:29.835Z,16.68
2018-09-20T03:07:56.749Z,16.71
2018-09-20T03:10:23.705Z,16.67
2018-09-20T03:12:50.622Z,16.70
2018-09-20T03:15:17.527Z,16.67
2018-09-20T03:17:44.425Z,16.69
2018-09-20T03:20:11.332Z,16.71
2018-09-20T03:22:38.236Z,16.69
2018-09-20T03:25:05.180Z,16.71
2018-09-20T03:27:32.084Z,16.70
2018-09-20T03:29:58.993Z,16.73
2018-09-20T03:32:25.926Z,16.76
2018-09-20T03:34:53.084Z,16.76
2018-09-20T03:37:20.016Z,16.78
2018-09-20T03:39:46.941Z,16.73
2018-09-20T03:42:13.845Z,16.72
2018-09-20T03:44:40.753Z,16.74
2018-09-20T03:47:07.697Z,16.71
2018-09-20T03:49:34.630Z,16.66
2018-09-20T03:52:01.545Z,16.65
2018-09-20T03:54:28.457Z,16.63
2018-09-20T03:56:55.389Z,16.61
2018-09-20T03:59:22.307Z,16.58
2018-09-20T04:01:49.218Z,16.55
2018-09-20T04:04:16.159Z,16.51
2018-09-20T04:06:43.067Z,16.48
2018-09-20T04:09:11.168Z,16.47
2018-09-20T04:11:38.329Z,16.48
2018-09-20T04:14:05.487Z,16.44
2018-09-20T04:16:32.399Z,16.38
2018-09-20T04:18:59.333Z,16.36
2018-09-20T04:21:31.844Z,16.35
2018-09-20T04:23:59.518Z,16.31
2018-09-20T04:26:26.747Z,16.33
2018-09-20T04:28:53.693Z,16.30
2018-09-20T04:31:20.636Z,16.29
2018-09-20T04:33:47.557Z,16.29
2018-09-20T04:36:14.481Z,16.26
2018-09-20T04:38:41.433Z,16.26
2018-09-20T04:41:08.377Z,16.25
2018-09-20T04:43:35.304Z,16.25
2018-09-20T04:46:02.259Z,16.25
2018-09-20T04:48:29.210Z,16.23
2018-09-20T04:50:56.140Z,16.20
2018-09-20T04:53:23.096Z,16.22
2018-09-20T04:55:50.043Z,16.22
2018-09-20T04:58:16.960Z,16.19
2018-09-20T05:00:43.905Z,16.17
2018-09-20T05:03:17.505Z,16.17
2018-09-20T05:05:44.441Z,16.13
2018-09-20T05:08:11.365Z,16.14
2018-09-20T05:10:38.309Z,16.09
2018-09-20T05:13:05.226Z,16.06
2018-09-20T05:15:32.149Z,16.05
2018-09-20T05:17:59.119Z,16.04
2018-09-20T05:20:26.060Z,16.04
2018-09-20T05:22:52.976Z,16.02
2018-09-20T05:25:19.924Z,16.04
2018-09-20T05:27:46.879Z,16.05
2018-09-20T05:30:13.857Z,16.04
2018-09-20T05:32:40.789Z,16.09
2018-09-20T05:35:07.721Z,16.15
2018-09-20T05:37:34.650Z,16.23
2018-09-20T05:40:01.590Z,16.28
2018-09-20T05:42:28.514Z,16.33
2018-09-20T05:44:55.433Z,16.41
2018-09-20T05:47:22.396Z,16.47
2018-09-20T05:49:49.300Z,16.51
2018-09-20T05:52:16.266Z,16.56
2018-09-20T05:54:43.197Z,16.62
2018-09-20T05:57:10.104Z,16.65
2018-09-20T05:59:37.040Z,16.72
2018-09-20T06:02:04.030Z,16.77
2018-09-20T06:04:30.965Z,16.80
2018-09-20T06:06:57.917Z,16.83
2018-09-20T06:09:24.845Z,16.85
2018-09-20T06:11:51.800Z,16.89
2018-09-20T06:14:18.800Z,16.92
2018-09-20T06:16:45.712Z,16.94
2018-09-20T06:19:12.637Z,16.98
2018-09-20T06:21:39.579Z,17.02
2018-09-20T06:24:06.793Z,17.05
2018-09-20T06:26:33.735Z,17.09
2018-09-20T06:29:00.661Z,17.12
2018-09-20T06:31:27.609Z,17.18
2018-09-20T06:33:54.551Z,17.25
2018-09-20T06:36:21.493Z,17.31
2018-09-20T06:38:48.473Z,17.34
2018-09-20T06:41:15.391Z,17.44
2018-09-20T06:43:42.336Z,17.59
2018-09-20T06:46:09.268Z,17.66
2018-09-20T06:48:36.187Z,17.72
2018-09-20T06:51:03.153Z,17.82
2018-09-20T06:53:30.078Z,17.93
2018-09-20T06:55:57.020Z,17.97
2018-09-20T06:58:23.959Z,17.92
2018-09-20T07:00:50.896Z,17.85
2018-09-20T07:03:17.886Z,17.83
2018-09-20T07:05:44.761Z,17.85
2018-09-20T07:08:11.697Z,17.90
2018-09-20T07:10:38.618Z,17.94
2018-09-20T07:13:05.569Z,18.03
2018-09-20T07:15:32.510Z,18.13
2018-09-20T07:17:59.459Z,18.18
2018-09-20T07:20:26.384Z,18.21
2018-09-20T07:22:53.353Z,18.33
2018-09-20T07:25:20.363Z,18.48
2018-09-20T07:27:47.234Z,18.50
2018-09-20T07:30:14.151Z,18.65
2018-09-20T07:32:41.138Z,18.75
2018-09-20T07:35:08.008Z,18.86
2018-09-20T07:37:34.936Z,19.01
2018-09-20T07:40:01.877Z,19.14
2018-09-20T07:42:28.801Z,19.25
2018-09-20T07:44:55.701Z,19.21
2018-09-20T07:47:22.713Z,19.24
2018-09-20T07:49:49.618Z,19.25
2018-09-20T07:52:16.532Z,19.28
2018-09-20T07:54:43.481Z,19.32
2018-09-20T07:57:10.419Z,19.36
2018-09-20T07:59:37.320Z,19.55
2018-09-20T08:02:04.327Z,19.73
2018-09-20T08:04:31.197Z,19.84
2018-09-20T08:06:58.170Z,20.00
2018-09-20T08:09:25.044Z,20.15
2018-09-20T08:11:51.958Z,20.36
2018-09-20T08:14:18.865Z,20.41
2018-09-20T08:16:45.777Z,20.26
2018-09-20T08:19:12.696Z,20.23
2018-09-20T08:21:39.749Z,20.23
2018-09-20T08:24:06.617Z,20.34
2018-09-20T08:26:33.533Z,20.59
2018-09-20T08:29:00.453Z,20.88
2018-09-20T08:31:27.361Z,20.92
2018-09-20T08:33:54.285Z,20.89
2018-09-20T08:36:21.197Z,20.81
2018-09-20T08:38:48.116Z,20.99
2018-09-20T08:41:15.024Z,21.07
2018-09-20T08:43:41.945Z,21.13
2018-09-20T08:46:08.845Z,21.48
2018-09-20T08:48:35.768Z,21.58
2018-09-20T08:51:02.747Z,21.64
2018-09-20T08:53:29.686Z,21.73
2018-09-20T08:55:56.600Z,21.60
2018-09-20T08:58:23.528Z,21.52
2018-09-20T09:00:50.428Z,21.45
2018-09-20T09:03:17.334Z,21.23
2018-09-20T09:05:44.248Z,21.34
2018-09-20T09:08:11.158Z,21.59
2018-09-20T09:10:38.072Z,21.91
2018-09-20T09:13:05.061Z,22.28
2018-09-20T09:15:31.956Z,22.46
2018-09-20T09:17:58.881Z,22.63
2018-09-20T09:20:25.787Z,22.79
2018-09-20T09:22:52.696Z,22.72
2018-09-20T09:25:19.618Z,22.35
2018-09-20T09:27:46.526Z,22.30
2018-09-20T09:30:13.452Z,22.33
2018-09-20T09:32:40.385Z,22.20
2018-09-20T09:35:07.313Z,21.80
2018-09-20T09:37:34.268Z,21.54
2018-09-20T09:40:01.189Z,21.35
2018-09-20T09:42:28.100Z,21.24
2018-09-20T09:44:55.046Z,21.15
2018-09-20T09:47:21.961Z,21.09
2018-09-20T09:49:48.868Z,21.07
2018-09-20T09:52:15.798Z,21.05
2018-09-20T09:54:42.737Z,21.05
2018-09-20T09:57:09.647Z,21.14
2018-09-20T09:59:36.603Z,21.17
2018-09-20T10:02:03.621Z,21.25
2018-09-20T10:04:30.558Z,21.27
2018-09-20T10:06:57.499Z,21.27
2018-09-20T10:09:24.424Z,21.39
2018-09-20T10:11:51.345Z,21.43
2018-09-20T10:14:18.258Z,21.52
2018-09-20T10:16:45.172Z,21.59
2018-09-20T10:19:12.113Z,21.56
2018-09-20T10:21:39.078Z,21.57
2018-09-20T10:24:06.030Z,21.57
2018-09-20T10:26:32.945Z,21.59
2018-09-20T10:28:59.856Z,21.69
2018-09-20T10:33:53.325Z,21.74
2018-09-20T10:36:20.196Z,21.78
2018-09-20T10:38:47.113Z,21.89
2018-09-20T10:41:14.009Z,22.06
2018-09-20T10:43:40.922Z,22.13
2018-09-20T10:46:07.831Z,22.22
2018-09-20T10:48:34.748Z,22.23
2018-09-20T10:51:01.659Z,22.22
2018-09-20T10:53:28.577Z,22.13
2018-09-20T10:55:55.482Z,21.97
2018-09-20T10:58:22.430Z,21.85
2018-09-20T11:00:49.576Z,21.83
2018-09-20T11:03:16.512Z,21.81
2018-09-20T11:05:43.395Z,21.72
2018-09-20T11:08:10.305Z,21.60
2018-09-20T11:10:37.281Z,21.62
2018-09-20T11:13:04.377Z,21.65
2018-09-20T11:15:31.293Z,21.77
2018-09-20T11:17:58.215Z,21.97
2018-09-20T11:20:25.131Z,21.90
2018-09-20T11:22:52.026Z,21.81
2018-09-20T11:25:18.944Z,21.77
2018-09-20T11:27:45.862Z,21.77
2018-09-20T11:32:46.436Z,21.86
2018-09-20T11:35:13.466Z,21.88
2018-09-20T11:37:40.389Z,21.86
2018-09-20T11:40:07.308Z,21.86
2018-09-20T11:42:34.228Z,21.99
2018-09-20T11:45:01.169Z,22.17
2018-09-20T11:47:28.088Z,22.23
2018-09-20T11:49:55.057Z,22.25
2018-09-20T11:52:21.984Z,22.14
2018-09-20T11:54:48.889Z,22.16
2018-09-20T11:57:15.816Z,22.20
2018-09-20T11:59:42.736Z,22.12
2018-09-20T12:02:09.677Z,22.11
2018-09-20T12:04:36.632Z,22.25
2018-09-20T12:07:03.629Z,22.31
2018-09-20T12:09:30.555Z,22.40
2018-09-20T12:11:57.466Z,22.39
2018-09-20T12:14:24.401Z,22.34
2018-09-20T12:16:51.332Z,22.38
2018-09-20T12:19:18.379Z,22.40
2018-09-20T12:21:45.301Z,22.33
2018-09-20T12:24:12.209Z,22.46
2018-09-20T12:26:39.170Z,22.59
2018-09-20T12:29:06.181Z,22.87
2018-09-20T12:31:33.155Z,22.96
2018-09-20T12:34:00.056Z,22.83
2018-09-20T12:36:26.991Z,22.68
2018-09-20T12:38:53.943Z,22.65
2018-09-20T12:41:20.861Z,22.63
2018-09-20T12:43:47.788Z,22.83
2018-09-20T12:46:14.732Z,23.11
2018-09-20T12:48:41.656Z,23.03
2018-09-20T12:51:08.637Z,22.97
2018-09-20T12:53:35.592Z,23.02
2018-09-20T12:56:02.536Z,23.22
2018-09-20T12:58:38.973Z,23.19
2018-09-20T13:01:06.027Z,23.36
2018-09-20T13:03:32.936Z,23.24
2018-09-20T13:05:59.882Z,23.05
2018-09-20T13:08:26.818Z,22.95
2018-09-20T13:10:53.764Z,23.09
2018-09-20T13:13:20.913Z,23.22
2018-09-20T13:15:48.024Z,23.27
2018-09-20T13:18:14.964Z,23.65
2018-09-20T13:20:41.902Z,24.04
2018-09-20T13:23:09.216Z,24.13
2018-09-20T13:25:36.208Z,23.83
2018-09-20T13:28:03.106Z,23.68
2018-09-20T13:30:30.030Z,23.48
2018-09-20T13:32:56.969Z,23.13
2018-09-20T13:35:23.911Z,23.11
2018-09-20T13:37:50.858Z,22.98
2018-09-20T13:40:17.798Z,22.90
2018-09-20T13:42:44.730Z,22.85
2018-09-20T13:45:11.681Z,22.74
2018-09-20T13:47:38.605Z,22.76
2018-09-20T13:50:05.560Z,22.79
2018-09-20T13:52:32.467Z,22.68
2018-09-20T13:54:59.372Z,22.60
2018-09-20T13:57:26.307Z,22.59
2018-09-20T13:59:53.215Z,22.65
2018-09-20T14:02:20.116Z,22.66
2018-09-20T14:04:47.064Z,22.76
2018-09-20T14:07:13.977Z,22.92
2018-09-20T14:09:40.873Z,22.93
2018-09-20T14:12:07.782Z,22.79
2018-09-20T14:14:34.718Z,22.81
2018-09-20T14:17:01.625Z,22.99
2018-09-20T14:19:28.541Z,22.98
2018-09-20T14:21:55.453Z,22.96
2018-09-20T14:24:22.351Z,22.95
2018-09-20T14:26:49.294Z,22.90
2018-09-20T14:29:16.206Z,22.85
2018-09-20T14:31:43.137Z,22.72
2018-09-20T14:34:10.065Z,22.68
2018-09-20T14:36:37.009Z,22.64
2018-09-20T14:39:06.983Z,22.62
2018-09-20T14:41:33.914Z,22.59
2018-09-20T14:44:00.834Z,22.56
2018-09-20T14:46:27.759Z,22.51
2018-09-20T14:48:54.680Z,22.47
2018-09-20T14:51:21.633Z,22.54
2018-09-20T14:53:48.580Z,22.60
2018-09-20T14:56:15.525Z,22.63
2018-09-20T14:58:42.449Z,22.61
2018-09-20T15:01:09.360Z,22.63
2018-09-20T15:03:36.342Z,22.62
2018-09-20T15:06:03.412Z,22.61
2018-09-20T15:08:30.377Z,22.58
2018-09-20T15:10:57.734Z,22.56
2018-09-20T15:13:24.665Z,22.52
2018-09-20T15:15:51.582Z,22.52
2018-09-20T15:18:18.518Z,22.49
2018-09-20T15:20:45.448Z,22.44
2018-09-20T15:23:12.377Z,22.38
2018-09-20T15:25:39.306Z,22.37
2018-09-20T15:28:06.231Z,22.35
2018-09-20T15:30:33.156Z,22.33
2018-09-20T15:33:00.091Z,22.34
2018-09-20T15:35:27.005Z,22.36
2018-09-20T15:37:53.909Z,22.41
2018-09-20T15:40:20.830Z,22.45
2018-09-20T15:42:47.749Z,22.48
2018-09-20T15:45:14.664Z,22.46
2018-09-20T15:47:41.589Z,22.48
2018-09-20T15:50:08.508Z,22.46
2018-09-20T15:52:35.428Z,22.45
2018-09-20T15:55:02.362Z,22.39
2018-09-20T15:57:29.294Z,22.34
2018-09-20T15:59:56.215Z,22.28
2018-09-20T16:02:23.133Z,22.25
2018-09-20T16:04:50.060Z,22.23
2018-09-20T16:07:16.965Z,22.21
2018-09-20T16:09:43.876Z,22.16
2018-09-20T16:12:10.784Z,22.11
2018-09-20T16:14:37.692Z,22.08
2018-09-20T16:17:04.663Z,22.07
2018-09-20T16:19:31.583Z,22.04
2018-09-20T16:21:58.486Z,22.01
2018-09-20T16:24:25.407Z,21.96
2018-09-20T16:26:52.308Z,21.90
2018-09-20T16:29:39.604Z,21.88
2018-09-20T16:32:13.069Z,21.85
2018-09-20T16:35:52.974Z,21.81
2018-09-20T16:38:36.054Z,21.74
2018-09-20T16:41:04.465Z,21.68
2018-09-20T16:43:31.385Z,21.66
2018-09-20T16:45:58.972Z,21.62
2018-09-20T16:48:25.911Z,21.57
2018-09-20T16:50:52.793Z,21.55
2018-09-20T16:53:19.764Z,21.49
2018-09-20T16:55:46.607Z,21.46
2018-09-20T16:58:13.504Z,21.41
2018-09-20T17:00:40.409Z,21.33
2018-09-20T17:03:07.302Z,21.26
2018-09-20T17:05:34.207Z,21.17
2018-09-20T17:08:01.162Z,21.10
2018-09-20T17:10:28.075Z,21.03
2018-09-20T17:12:54.996Z,20.92
2018-09-20T17:15:21.909Z,20.79
2018-09-20T17:17:48.802Z,20.67
2018-09-20T17:20:15.705Z,20.56
2018-09-20T17:22:42.606Z,20.45
2018-09-20T17:25:09.530Z,20.34
2018-09-20T17:27:36.430Z,20.25
2018-09-20T17:30:03.418Z,20.18
2018-09-20T17:32:30.333Z,20.13
2018-09-20T17:34:57.464Z,20.09
2018-09-20T17:37:25.965Z,20.01
2018-09-20T17:39:54.502Z,19.95
2018-09-20T17:42:22.464Z,19.85
2018-09-20T17:44:49.417Z,19.76
2018-09-20T17:47:16.335Z,19.65
2018-09-20T17:49:43.217Z,19.58
2018-09-20T17:52:10.517Z,19.49
2018-09-20T17:54:37.737Z,19.40
2018-09-20T17:57:04.997Z,19.28
2018-09-20T17:59:31.949Z,19.16
2018-09-20T18:01:58.858Z,19.08
2018-09-20T18:04:25.772Z,19.02
2018-09-20T18:07:24.811Z,18.92
2018-09-20T18:09:51.752Z,18.88
2018-09-20T18:12:18.685Z,18.90
2018-09-20T18:14:45.607Z,18.94
2018-09-20T18:17:12.542Z,18.88
2018-09-20T18:19:39.464Z,18.78
2018-09-20T18:22:06.575Z,18.68
2018-09-20T18:24:33.505Z,18.62
2018-09-20T18:27:00.425Z,18.57
2018-09-20T18:29:27.345Z,18.58
2018-09-20T18:31:54.273Z,18.54
2018-09-20T18:34:21.224Z,18.70
2018-09-20T18:36:48.121Z,18.81
2018-09-20T18:39:15.045Z,18.69
2018-09-20T18:41:43.682Z,18.55
2018-09-20T18:44:10.593Z,18.46
2018-09-20T18:46:37.601Z,18.36
2018-09-20T18:49:05.104Z,18.44
2018-09-20T18:51:32.034Z,18.38
2018-09-20T18:53:58.953Z,18.24
2018-09-20T18:56:25.936Z,18.16
2018-09-20T18:58:52.876Z,18.16
2018-09-20T19:01:19.781Z,18.19
2018-09-20T19:03:46.717Z,18.13
2018-09-20T19:06:13.643Z,18.10
2018-09-20T19:08:40.569Z,18.09
2018-09-20T19:11:07.491Z,18.07
2018-09-20T19:13:34.437Z,18.05
2018-09-20T19:16:01.352Z,18.04
2018-09-20T19:18:28.276Z,17.98
2018-09-20T19:20:55.226Z,17.90
2018-09-20T19:23:22.151Z,17.78
2018-09-20T19:25:49.978Z,17.72
2018-09-20T19:28:17.099Z,17.68
2018-09-20T19:30:44.259Z,17.64
2018-09-20T19:33:11.188Z,17.60
2018-09-20T19:35:38.116Z,17.62
2018-09-20T19:38:05.066Z,17.57
2018-09-20T19:40:31.981Z,17.44
2018-09-20T19:42:58.935Z,17.32
2018-09-20T19:45:25.853Z,17.24
2018-09-20T19:47:53.272Z,17.27
2018-09-20T19:50:20.305Z,17.20
2018-09-20T19:52:47.281Z,17.11
2018-09-20T19:55:14.271Z,17.10
2018-09-20T19:57:41.264Z,17.08
2018-09-20T20:00:08.237Z,17.05
2018-09-20T20:02:35.232Z,17.03
2018-09-20T20:05:02.222Z,17.01
2018-09-20T20:07:29.170Z,16.98
2018-09-20T20:09:56.091Z,16.96
2018-09-20T20:12:22.996Z,16.86
2018-09-20T20:14:49.923Z,16.79
2018-09-20T20:17:16.847Z,16.75
2018-09-20T20:19:43.815Z,16.70
2018-09-20T20:22:10.716Z,16.72
2018-09-20T20:24:37.633Z,16.66
2018-09-20T20:27:04.672Z,16.58
2018-09-20T20:29:31.603Z,16.60
2018-09-20T20:31:58.529Z,16.57
2018-09-20T20:34:25.458Z,16.45
2018-09-20T20:36:52.355Z,16.41
2018-09-20T20:39:19.275Z,16.39
2018-09-20T20:41:46.189Z,16.40
2018-09-20T20:44:13.128Z,16.41
2018-09-20T20:46:40.033Z,16.32
2018-09-20T20:49:06.962Z,16.26
2018-09-20T20:51:33.900Z,16.25
2018-09-20T20:54:00.824Z,16.23
2018-09-20T20:56:27.745Z,16.21
2018-09-20T20:58:55.150Z,16.18
2018-09-20T21:01:21.972Z,16.14
2018-09-20T21:03:49.652Z,16.07
2018-09-20T21:06:17.204Z,16.03
2018-09-20T21:08:44.249Z,16.00
2018-09-20T21:11:11.158Z,16.04
2018-09-20T21:13:38.136Z,15.99
2018-09-20T21:16:05.070Z,15.98
2018-09-20T21:18:31.997Z,15.94
2018-09-20T21:20:58.900Z,15.91
2018-09-20T21:23:25.836Z,15.89
2018-09-20T21:25:52.753Z,15.88
2018-09-20T21:28:19.665Z,15.87
2018-09-20T21:30:46.585Z,15.86
2018-09-20T21:33:13.507Z,15.86
2018-09-20T21:35:40.455Z,15.85
2018-09-20T21:38:07.357Z,15.87
2018-09-20T21:40:34.297Z,15.90
2018-09-20T21:43:01.211Z,15.95
2018-09-20T21:45:28.138Z,15.99
2018-09-20T21:47:55.085Z,16.00
2018-09-20T21:50:22.023Z,16.01
2018-09-20T21:52:48.944Z,16.03
2018-09-20T21:55:15.868Z,16.03
2018-09-20T21:57:42.780Z,16.02
2018-09-20T22:00:09.781Z,16.03
2018-09-20T22:02:42.541Z,16.02
2018-09-20T22:05:09.460Z,16.03
2018-09-20T22:07:36.369Z,16.04
2018-09-20T22:10:03.351Z,16.02
2018-09-20T22:12:30.257Z,15.99
2018-09-20T22:14:57.188Z,15.98
2018-09-20T22:17:24.085Z,15.96
2018-09-20T22:19:50.997Z,15.96
2018-09-20T22:22:17.920Z,15.95
2018-09-20T22:24:44.834Z,15.99
2018-09-20T22:27:11.748Z,16.04
2018-09-20T22:29:38.676Z,16.04
2018-09-20T22:32:05.612Z,16.09
2018-09-20T22:34:32.532Z,16.12
2018-09-20T22:36:59.452Z,16.15
2018-09-20T22:39:26.376Z,16.18
2018-09-20T22:41:53.280Z,16.19
2018-09-20T22:44:20.196Z,16.16
2018-09-20T22:46:47.100Z,16.19
2018-09-20T22:49:14.025Z,16.28
2018-09-20T22:51:40.937Z,16.36
2018-09-20T22:54:07.844Z,16.40
2018-09-20T22:56:34.768Z,16.50
2018-09-20T22:59:01.679Z,16.59
2018-09-20T23:01:28.590Z,16.66
2018-09-20T23:03:55.505Z,16.75
2018-09-20T23:06:22.444Z,16.79
2018-09-20T23:08:49.352Z,16.90
2018-09-20T23:11:16.280Z,16.91
2018-09-20T23:13:43.190Z,16.86
2018-09-20T23:16:10.114Z,16.92
2018-09-20T23:18:43.679Z,17.04
2018-09-20T23:21:10.596Z,17.07
2018-09-20T23:23:37.596Z,17.09
2018-09-20T23:26:04.532Z,17.12
2018-09-20T23:28:31.432Z,17.13
2018-09-20T23:30:58.373Z,17.17
2018-09-20T23:33:25.278Z,17.18
2018-09-20T23:35:52.212Z,17.20
2018-09-20T23:38:19.111Z,17.12
2018-09-20T23:40:46.025Z,17.05
2018-09-20T23:43:12.932Z,17.00
2018-09-20T23:45:39.842Z,16.94
2018-09-20T23:48:06.865Z,16.95
2018-09-20T23:50:33.780Z,16.93
2018-09-20T23:53:00.702Z,16.79
2018-09-20T23:55:27.609Z,16.65
2018-09-20T23:57:54.509Z,16.53
